KMNN

Marion Municipal Airport

Marion, Ohio, USA
METAR KMNN 191053Z AUTO 17005KT 10SM CLR M03/M06 A3006 RMK AO2 SLP192 T10281056 $
Observed Flight Rules
Dec-19 @ 10:53 UTC (46 minutes ago) Visual Flight Rules
Wind Visibility Clouds
170° at 5 knots 10 miles
  • Clear skies
Temperatures Readings
Current -3°C / 27°F
Dewpoint -6°C / 21°F
Humidity 80%
Altimeter 30.06" Hg
Pressure 1019.2 hPa
Elevation 301
METAR KMNN 191053Z AUTO 17005KT 10SM CLR M03/M06 A3006 RMK AO2 SLP192 T10281056 $
Observed Flight Rules
Dec-19 @ 10:53 UTC
(46 minutes ago)
VFR
Wind Visibility
170° at 5 knots 10 miles
Clouds
  • Clear skies
Temperature Dewpoint
-3°C / 27°F -6°C / 21°F
Humidity Altimeter Pressure
80% 30.06" Hg 1019.2 hPa